createdAt,value
2019-04-22T00:05:11.506Z,56.32
2019-04-22T00:10:32.372Z,56.44
2019-04-22T00:15:32.567Z,56.70
2019-04-22T00:20:45.464Z,56.58
2019-04-22T00:25:57.270Z,56.58
2019-04-22T00:31:02.854Z,56.64
2019-04-22T00:36:09.551Z,56.90
2019-04-22T00:41:14.904Z,56.79
2019-04-22T00:46:17.579Z,56.81
2019-04-22T00:51:28.822Z,56.63
2019-04-22T00:56:28.305Z,56.92
2019-04-22T01:01:39.785Z,57.19
2019-04-22T01:06:41.382Z,57.10
2019-04-22T01:11:50.546Z,57.10
2019-04-22T01:16:53.781Z,57.26
2019-04-22T01:21:58.258Z,57.30
2019-04-22T01:27:04.664Z,57.58
2019-04-22T01:31:51.057Z,57.55
2019-04-22T01:37:18.767Z,58.04
2019-04-22T01:42:37.360Z,57.72
2019-04-22T01:47:36.734Z,58.09
2019-04-22T01:52:47.320Z,57.94
2019-04-22T01:57:47.632Z,57.94
2019-04-22T02:02:57.514Z,58.55
2019-04-22T02:08:06.824Z,58.78
2019-04-22T02:13:08.056Z,58.39
2019-04-22T02:18:17.843Z,58.85
2019-04-22T02:28:38.311Z,58.90
2019-04-22T02:34:08.999Z,58.90
2019-04-22T02:59:14.337Z,59.45
2019-04-22T03:04:31.864Z,59.45
2019-04-22T03:09:25.733Z,60.26
2019-04-22T03:14:30.279Z,60.27
2019-04-22T03:25:23.798Z,60.37
2019-04-22T03:40:36.846Z,60.95
2019-04-22T03:50:37.014Z,60.82
2019-04-22T03:55:53.157Z,61.11
2019-04-22T04:06:00.374Z,60.71
2019-04-22T04:11:09.674Z,61.09
2019-04-22T04:16:19.574Z,60.78
2019-04-22T04:31:43.189Z,61.08
2019-04-22T04:36:42.246Z,61.23
2019-04-22T04:41:54.280Z,61.23
2019-04-22T04:47:05.368Z,61.24
2019-04-22T04:52:10.435Z,61.56
2019-04-22T04:57:32.017Z,61.56
2019-04-22T05:02:12.305Z,61.57
2019-04-22T05:07:17.916Z,61.50
2019-04-22T05:12:35.521Z,61.94
2019-04-22T05:17:27.586Z,61.99
2019-04-22T05:27:40.019Z,61.68
2019-04-22T05:37:54.726Z,61.81
2019-04-22T05:42:51.255Z,61.72
2019-04-22T05:47:57.559Z,61.77
2019-04-22T05:53:16.591Z,61.89
2019-04-22T05:58:12.395Z,61.77
2019-04-22T06:03:12.242Z,62.31
2019-04-22T06:08:22.021Z,62.34
2019-04-22T06:13:26.763Z,61.99
2019-04-22T06:18:33.305Z,62.04
2019-04-22T06:28:48.172Z,62.41
2019-04-22T06:33:54.755Z,62.41
2019-04-22T06:38:54.435Z,62.24
2019-04-22T06:44:05.074Z,62.27
2019-04-22T06:49:11.124Z,62.29
2019-04-22T06:54:17.964Z,62.57
2019-04-22T07:00:05.539Z,62.51
2019-04-22T07:04:58.287Z,48.93
2019-04-22T07:10:08.200Z,48.93
2019-04-22T07:15:21.845Z,46.11
2019-04-22T07:20:10.560Z,45.14
2019-04-22T07:25:32.739Z,45.79
2019-04-22T07:30:21.903Z,45.79
2019-04-22T07:40:40.574Z,43.63
2019-04-22T07:45:45.772Z,43.63
2019-04-22T07:51:02.907Z,42.49
2019-04-22T07:55:55.457Z,42.59
2019-04-22T08:01:03.795Z,42.68
2019-04-22T08:11:22.217Z,43.82
2019-04-22T08:16:29.129Z,44.78
2019-04-22T08:21:19.747Z,44.78
2019-04-22T08:26:27.619Z,45.26
2019-04-22T08:31:35.693Z,45.12
2019-04-22T08:46:57.851Z,47.73
2019-04-22T08:51:56.253Z,48.07
2019-04-22T08:57:01.886Z,49.13
2019-04-22T09:02:13.285Z,49.34
2019-04-22T09:07:20.955Z,50.44
2019-04-22T09:12:25.864Z,50.44
2019-04-22T09:17:31.574Z,53.55
2019-04-22T09:22:47.290Z,53.61
2019-04-22T09:27:48.474Z,53.30
2019-04-22T09:32:45.174Z,53.18
2019-04-22T09:38:01.658Z,50.26
2019-04-22T09:43:00.645Z,46.91
2019-04-22T09:48:06.847Z,47.20
2019-04-22T09:53:13.390Z,45.26
2019-04-22T09:58:09.443Z,43.89
2019-04-22T10:03:19.972Z,43.89
2019-04-22T10:08:31.638Z,48.09
2019-04-22T10:13:34.629Z,48.47
2019-04-22T10:18:42.034Z,48.73
2019-04-22T10:23:44.310Z,49.70
2019-04-22T10:28:52.502Z,50.49
2019-04-22T10:33:46.563Z,51.03
2019-04-22T10:38:34.606Z,51.48
2019-04-22T10:43:39.175Z,52.39
2019-04-22T10:48:44.261Z,52.39
2019-04-22T10:53:49.380Z,53.07
2019-04-22T10:58:53.625Z,53.07
2019-04-22T11:03:59.471Z,52.69
2019-04-22T11:09:06.256Z,48.84
2019-04-22T11:14:10.698Z,48.84
2019-04-22T11:19:14.910Z,50.85
2019-04-22T11:24:19.034Z,48.55
2019-04-22T11:29:23.781Z,48.81
2019-04-22T11:34:29.078Z,48.99
2019-04-22T11:39:36.494Z,48.64
2019-04-22T11:44:39.230Z,49.42
2019-04-22T11:49:43.895Z,49.15
2019-04-22T11:54:48.584Z,49.49
2019-04-22T11:59:52.898Z,49.17
2019-04-22T12:04:58.186Z,49.17
2019-04-22T12:10:15.092Z,48.20
2019-04-22T12:15:10.676Z,48.20
2019-04-22T12:20:18.423Z,47.02
2019-04-22T12:25:36.144Z,47.58
2019-04-22T12:30:30.861Z,47.37
2019-04-22T12:35:35.026Z,47.37
2019-04-22T12:40:48.654Z,46.47
2019-04-22T12:45:44.900Z,46.47
2019-04-22T12:50:52.137Z,45.95
2019-04-22T12:55:55.458Z,46.18
2019-04-22T13:01:01.238Z,45.89
2019-04-22T13:06:05.959Z,45.89
2019-04-22T13:11:15.423Z,45.04
2019-04-22T13:16:17.469Z,44.89
2019-04-22T13:21:22.785Z,44.98
2019-04-22T13:26:27.278Z,45.09
2019-04-22T13:31:32.869Z,45.09
2019-04-22T13:36:40.025Z,45.03
2019-04-22T13:41:48.755Z,45.67
2019-04-22T13:52:35.256Z,46.97
2019-04-22T13:57:19.869Z,47.32
2019-04-22T14:02:34.657Z,47.32
2019-04-22T14:07:38.926Z,47.55
2019-04-22T14:12:42.938Z,48.06
2019-04-22T14:17:47.209Z,48.06
2019-04-22T14:22:52.648Z,48.06
2019-04-22T14:28:03.644Z,48.18
2019-04-22T14:33:02.756Z,48.39
2019-04-22T14:38:08.410Z,48.59
2019-04-22T14:44:43.034Z,48.41
2019-04-22T14:48:45.878Z,48.41
2019-04-22T14:53:43.333Z,48.77
2019-04-22T14:58:31.063Z,49.18
2019-04-22T15:03:39.943Z,49.04
2019-04-22T15:08:42.635Z,48.90
2019-04-22T15:13:47.475Z,49.03
2019-04-22T15:18:56.017Z,49.33
2019-04-22T15:24:20.503Z,49.44
2019-04-22T15:29:25.414Z,49.51
2019-04-22T15:34:32.577Z,49.56
2019-04-22T15:39:36.811Z,49.70
2019-04-22T15:44:42.208Z,49.50
2019-04-22T15:49:47.841Z,49.45
2019-04-22T15:54:53.883Z,49.30
2019-04-22T16:00:14.768Z,49.38
2019-04-22T16:05:04.492Z,50.02
2019-04-22T16:10:10.122Z,50.02
2019-04-22T16:15:16.096Z,50.33
2019-04-22T16:20:21.631Z,50.41
2019-04-22T16:25:47.197Z,50.46
2019-04-22T16:30:51.410Z,50.22
2019-04-22T16:35:55.583Z,50.36
2019-04-22T16:41:00.912Z,50.54
2019-04-22T16:46:05.668Z,50.81
2019-04-22T16:51:10.018Z,50.63
2019-04-22T16:56:15.195Z,50.54
2019-04-22T17:01:38.702Z,50.38
2019-04-22T17:06:43.624Z,50.61
2019-04-22T17:11:48.029Z,50.66
2019-04-22T17:16:52.883Z,50.70
2019-04-22T17:21:57.642Z,50.91
2019-04-22T17:27:02.258Z,49.55
2019-04-22T17:32:13.222Z,48.97
2019-04-22T17:37:19.191Z,49.25
2019-04-22T17:42:39.931Z,49.41
2019-04-22T17:48:04.324Z,49.41
2019-04-22T17:53:15.194Z,48.84
2019-04-22T17:58:21.054Z,48.84
2019-04-22T18:03:13.099Z,48.29
2019-04-22T18:08:25.606Z,48.69
2019-04-22T18:13:40.983Z,49.22
2019-04-22T18:18:36.932Z,49.56
2019-04-22T18:23:29.404Z,49.81
2019-04-22T18:28:50.881Z,49.89
2019-04-22T18:33:52.699Z,50.06
2019-04-22T18:39:06.346Z,50.46
2019-04-22T18:44:09.971Z,50.44
2019-04-22T18:49:11.084Z,50.44
2019-04-22T18:54:48.449Z,50.80
2019-04-22T18:59:33.811Z,51.02
2019-04-22T19:04:44.369Z,50.30
2019-04-22T19:10:13.342Z,50.33
2019-04-22T19:15:12.921Z,50.58
2019-04-22T19:20:18.763Z,50.80
2019-04-22T19:25:15.340Z,50.78
2019-04-22T19:30:30.225Z,51.16
2019-04-22T19:35:26.875Z,51.19
2019-04-22T19:40:47.876Z,51.19
2019-04-22T19:45:39.886Z,51.24
2019-04-22T19:51:00.174Z,51.07
2019-04-22T19:55:53.900Z,51.10
2019-04-22T20:01:25.485Z,51.31
2019-04-22T20:06:47.761Z,51.31
2019-04-22T20:11:57.440Z,51.23
2019-04-22T20:16:54.442Z,51.40
2019-04-22T20:22:03.111Z,50.78
2019-04-22T20:27:15.281Z,50.78
2019-04-22T20:32:18.830Z,50.96
2019-04-22T20:37:29.978Z,51.54
2019-04-22T20:42:48.761Z,51.54
2019-04-22T20:47:32.278Z,51.71
2019-04-22T20:52:50.265Z,52.32
2019-04-22T20:57:48.293Z,51.84
2019-04-22T21:02:43.957Z,51.84
2019-04-22T21:08:05.283Z,52.20
2019-04-22T21:13:00.124Z,52.29
2019-04-22T21:18:08.263Z,52.02
2019-04-22T21:23:11.055Z,52.02
2019-04-22T21:28:21.661Z,51.37
2019-04-22T21:33:20.948Z,51.59
2019-04-22T21:38:33.172Z,51.98
2019-04-22T21:43:44.943Z,51.84
2019-04-22T21:48:46.352Z,51.79
2019-04-22T21:53:58.601Z,51.80
2019-04-22T21:59:05.167Z,51.80
2019-04-22T22:04:05.038Z,52.05
2019-04-22T22:09:15.569Z,52.05
2019-04-22T22:14:16.989Z,52.05
2019-04-22T22:19:22.456Z,52.05
2019-04-22T22:24:34.244Z,52.34
2019-04-22T22:29:50.325Z,52.46
2019-04-22T22:34:42.642Z,52.67
2019-04-22T22:39:39.207Z,52.41
2019-04-22T22:44:40.418Z,52.85
2019-04-22T22:49:57.612Z,52.85
2019-04-22T22:55:04.214Z,52.75
2019-04-22T23:00:14.984Z,52.81
2019-04-22T23:05:21.780Z,53.00
2019-04-22T23:10:25.285Z,52.90
2019-04-22T23:15:25.701Z,52.72
2019-04-22T23:20:19.561Z,53.22
2019-04-22T23:25:45.040Z,53.00
2019-04-22T23:30:56.746Z,53.00
2019-04-22T23:36:08.764Z,53.45
2019-04-22T23:41:45.824Z,53.09
2019-04-22T23:46:55.326Z,53.07
2019-04-22T23:52:10.177Z,53.35
2019-04-22T23:57:04.633Z,53.35
